Time;durP1;ratioP1;P1;durP2;ratioP2;P2;SDS_P1;SDS_P2;PMS_P1;PMS_P2;Temp;Humidity;BMP_temperature;BMP_pressure;BME280_temperature;BME280_humidity;BME280_pressure;Samples;Min_cycle;Max_cycle;Signal;HPM_P1;HPM_P2
2023/07/12 00:01:47;;;;;;;4.90;4.53;;;;;;;;;;5152440;27;20276;-88
2023/07/12 00:04:13;;;;;;;6.15;4.47;;;;;;;;;;5154029;27;20252;-88
2023/07/12 00:06:42;;;;;;;4.38;4.15;;;;;;;;;;5153284;27;20188;-87
2023/07/12 00:09:12;;;;;;;5.30;4.78;;;;;;;;;;5152168;27;20341;-86
2023/07/12 00:11:39;;;;;;;4.82;4.30;;;;;;;;;;5152608;27;20672;-88
2023/07/12 00:14:06;;;;;;;6.28;4.28;;;;;;;;;;5152898;27;20192;-88
2023/07/12 00:16:35;;;;;;;4.50;4.25;;;;;;;;;;5152569;27;20200;-87
2023/07/12 00:19:01;;;;;;;4.75;4.13;;;;;;;;;;5153067;27;20189;-87
2023/07/12 00:21:29;;;;;;;5.32;4.47;;;;;;;;;;5153091;27;20248;-87
2023/07/12 00:23:58;;;;;;;5.45;4.85;;;;;;;;;;5153092;27;20336;-89
2023/07/12 00:26:27;;;;;;;8.43;4.47;;;;;;;;;;5152826;27;20242;-88
2023/07/12 00:28:54;;;;;;;6.22;4.70;;;;;;;;;;5153505;27;20233;-88
2023/07/12 00:31:21;;;;;;;4.85;4.55;;;;;;;;;;5152881;27;20211;-87
2023/07/12 00:33:48;;;;;;;5.15;4.70;;;;;;;;;;5152758;27;20281;-87
2023/07/12 00:36:16;;;;;;;4.57;4.22;;;;;;;;;;5152739;27;20248;-90
2023/07/12 00:38:43;;;;;;;5.40;4.50;;;;;;;;;;5152552;27;20208;-88
2023/07/12 00:41:17;;;;;;;5.03;4.72;;;;;;;;;;5152497;27;20717;-88
2023/07/12 00:43:46;;;;;;;4.97;4.57;;;;;;;;;;5152769;27;20221;-87
2023/07/12 00:46:15;;;;;;;4.95;4.55;;;;;;;;;;5151701;27;20644;-89
2023/07/12 00:48:42;;;;;;;5.18;4.78;;;;;;;;;;5153033;27;20544;-87
2023/07/12 00:51:24;;;;;;;5.55;4.45;;;;;;;;;;5152749;27;20199;-88
2023/07/12 00:53:50;;;;;;;7.45;5.40;;;;;;;;;;5152984;27;20302;-88
2023/07/12 00:56:19;;;;;;;4.38;4.18;;;;;;;;;;5151795;27;20689;-87
2023/07/12 00:58:47;;;;;;;4.35;4.10;;;;;;;;;;5152812;27;20204;-89
2023/07/12 01:01:15;;;;;;;8.35;4.88;;;;;;;;;;5152416;27;20264;-88
2023/07/12 01:03:43;;;;;;;5.18;4.35;;;;;;;;;;5152494;27;20203;-88
2023/07/12 01:06:11;;;;;;;5.85;4.50;;;;;;;;;;5152685;27;20196;-89
2023/07/12 01:08:41;;;;;;;5.85;4.15;;;;;;;;;;5154391;27;20203;-88
2023/07/12 01:11:08;;;;;;;4.30;4.00;;;;;;;;;;5162049;27;20382;-87
2023/07/12 01:13:37;;;;;;;7.00;4.63;;;;;;;;;;5161670;27;20204;-88
2023/07/12 01:16:04;;;;;;;6.60;4.82;;;;;;;;;;5158587;27;20203;-87
2023/07/12 01:18:31;;;;;;;5.18;4.60;;;;;;;;;;5160788;27;20690;-87
2023/07/12 01:21:10;;;;;;;5.20;4.75;;;;;;;;;;5160675;27;20283;-89
2023/07/12 01:23:37;;;;;;;9.48;4.95;;;;;;;;;;5160856;27;20195;-87
2023/07/12 01:26:19;;;;;;;5.95;4.40;;;;;;;;;;5161235;27;20200;-86
2023/07/12 01:28:47;;;;;;;3.90;3.60;;;;;;;;;;5158211;27;20202;-88
2023/07/12 01:31:14;;;;;;;4.63;4.22;;;;;;;;;;5159100;27;20292;-87
2023/07/12 01:33:41;;;;;;;5.35;4.53;;;;;;;;;;5158466;27;20635;-87
2023/07/12 01:36:09;;;;;;;6.10;4.18;;;;;;;;;;5156059;27;20664;-87
2023/07/12 01:38:36;;;;;;;5.07;4.57;;;;;;;;;;5155764;27;20192;-87
2023/07/12 01:41:03;;;;;;;5.25;4.75;;;;;;;;;;5155555;27;20194;-88
2023/07/12 01:43:30;;;;;;;8.18;4.35;;;;;;;;;;5156098;27;20520;-88
2023/07/12 01:45:57;;;;;;;9.20;8.25;;;;;;;;;;5155494;27;20224;-88
2023/07/12 01:48:24;;;;;;;6.00;5.05;;;;;;;;;;5155753;27;20266;-89
2023/07/12 01:50:51;;;;;;;5.40;4.90;;;;;;;;;;5155683;27;20668;-87
2023/07/12 01:53:19;;;;;;;5.07;4.60;;;;;;;;;;5155443;27;20252;-87
2023/07/12 01:55:46;;;;;;;9.00;5.32;;;;;;;;;;5154454;27;20658;-88
2023/07/12 01:58:14;;;;;;;5.63;4.88;;;;;;;;;;5155222;27;20194;-87
2023/07/12 02:00:40;;;;;;;6.40;4.45;;;;;;;;;;5154912;27;20508;-88
2023/07/12 02:03:07;;;;;;;5.28;4.78;;;;;;;;;;5154838;27;20233;-88
2023/07/12 02:05:34;;;;;;;5.50;5.07;;;;;;;;;;5157251;27;20593;-86
2023/07/12 02:08:01;;;;;;;6.20;4.45;;;;;;;;;;5166381;27;20192;-87
2023/07/12 02:10:30;;;;;;;5.47;4.97;;;;;;;;;;5164328;27;20322;-88
2023/07/12 02:12:57;;;;;;;6.38;4.53;;;;;;;;;;5155525;27;20312;-88
2023/07/12 02:15:24;;;;;;;7.05;4.22;;;;;;;;;;5155393;27;20224;-87
2023/07/12 02:17:51;;;;;;;4.90;4.50;;;;;;;;;;5155154;27;20200;-87
2023/07/12 02:20:18;;;;;;;5.93;4.47;;;;;;;;;;5154445;27;20220;-87
2023/07/12 02:22:47;;;;;;;4.95;4.43;;;;;;;;;;5155787;27;20202;-86
2023/07/12 02:25:15;;;;;;;6.60;4.53;;;;;;;;;;5156384;27;20198;-88
2023/07/12 02:27:44;;;;;;;9.05;5.28;;;;;;;;;;5159308;27;20226;-87
2023/07/12 02:30:12;;;;;;;6.28;5.53;;;;;;;;;;5159123;27;20369;-87
2023/07/12 02:32:39;;;;;;;5.90;4.88;;;;;;;;;;5157889;27;20209;-88
2023/07/12 02:35:07;;;;;;;5.95;4.30;;;;;;;;;;5156022;27;20203;-88
2023/07/12 02:37:34;;;;;;;5.03;4.63;;;;;;;;;;5154291;27;20193;-88
2023/07/12 02:40:00;;;;;;;5.40;4.85;;;;;;;;;;5154062;27;20266;-86
2023/07/12 02:42:28;;;;;;;6.63;5.20;;;;;;;;;;5154096;27;20201;-86
2023/07/12 02:44:56;;;;;;;11.27;5.25;;;;;;;;;;5153795;27;20194;-87
2023/07/12 02:47:23;;;;;;;5.55;4.40;;;;;;;;;;5154689;27;20257;-87
2023/07/12 02:49:50;;;;;;;6.03;5.20;;;;;;;;;;5154531;27;20225;-87
2023/07/12 02:52:17;;;;;;;5.60;5.13;;;;;;;;;;5154853;27;20200;-86
2023/07/12 02:54:44;;;;;;;8.18;5.93;;;;;;;;;;5154246;27;20690;-88
2023/07/12 02:57:12;;;;;;;6.55;5.20;;;;;;;;;;5157461;27;20258;-88
2023/07/12 02:59:39;;;;;;;6.43;5.80;;;;;;;;;;5160569;27;20573;-87
2023/07/12 03:02:09;;;;;;;6.65;4.65;;;;;;;;;;5162716;27;20202;-88
2023/07/12 03:04:36;;;;;;;7.70;5.22;;;;;;;;;;5168451;27;20235;-86
2023/07/12 03:07:03;;;;;;;5.90;5.40;;;;;;;;;;5172741;27;20206;-87
2023/07/12 03:09:30;;;;;;;11.57;4.95;;;;;;;;;;5163937;27;20275;-87
2023/07/12 03:11:57;;;;;;;5.25;4.78;;;;;;;;;;5157134;27;20226;-88
2023/07/12 03:14:25;;;;;;;5.15;4.65;;;;;;;;;;5155730;27;20258;-88
2023/07/12 03:16:52;;;;;;;6.65;5.88;;;;;;;;;;5154341;27;20206;-88
2023/07/12 03:19:20;;;;;;;4.38;4.05;;;;;;;;;;5154423;27;20301;-87
2023/07/12 03:21:47;;;;;;;6.00;4.55;;;;;;;;;;5154243;27;20245;-89
2023/07/12 03:24:13;;;;;;;6.15;5.55;;;;;;;;;;5154528;27;20206;-88
2023/07/12 03:26:40;;;;;;;8.77;5.15;;;;;;;;;;5153514;27;20271;-88
2023/07/12 03:29:07;;;;;;;5.97;5.03;;;;;;;;;;5154569;27;20204;-88
2023/07/12 03:31:34;;;;;;;5.97;5.13;;;;;;;;;;5153818;27;20299;-88
2023/07/12 03:34:04;;;;;;;7.60;5.53;;;;;;;;;;5152651;27;20659;-89
2023/07/12 03:36:32;;;;;;;5.40;5.00;;;;;;;;;;5155916;27;20601;-87
2023/07/12 03:38:59;;;;;;;12.18;5.38;;;;;;;;;;5153187;27;20218;-88
2023/07/12 03:41:26;;;;;;;5.70;5.15;;;;;;;;;;5154276;27;20204;-87
2023/07/12 03:43:54;;;;;;;7.32;5.18;;;;;;;;;;5153830;27;20268;-88
2023/07/12 03:46:21;;;;;;;10.27;4.72;;;;;;;;;;5154803;27;20200;-88
2023/07/12 03:48:48;;;;;;;5.32;4.93;;;;;;;;;;5154782;27;20260;-89
2023/07/12 03:51:17;;;;;;;8.38;5.72;;;;;;;;;;5154912;27;20223;-89
2023/07/12 03:53:46;;;;;;;6.85;5.25;;;;;;;;;;5153523;27;20600;-88
2023/07/12 03:56:13;;;;;;;5.57;4.53;;;;;;;;;;5154672;27;20196;-89
2023/07/12 03:58:41;;;;;;;5.90;5.30;;;;;;;;;;5161269;27;20203;-89
2023/07/12 04:01:09;;;;;;;8.57;6.03;;;;;;;;;;5161011;27;20636;-88
2023/07/12 04:03:36;;;;;;;5.63;5.10;;;;;;;;;;5159288;27;20188;-89
2023/07/12 04:06:04;;;;;;;6.85;5.30;;;;;;;;;;5153536;27;20198;-89
2023/07/12 04:08:32;;;;;;;7.03;6.18;;;;;;;;;;5153073;27;20203;-88
2023/07/12 04:11:00;;;;;;;5.90;5.20;;;;;;;;;;5153048;27;20280;-88
2023/07/12 04:13:27;;;;;;;10.90;5.15;;;;;;;;;;5152593;27;20312;-87
2023/07/12 04:15:55;;;;;;;10.40;7.55;;;;;;;;;;5152919;27;20196;-88
2023/07/12 04:18:21;;;;;;;6.63;6.03;;;;;;;;;;5153214;27;20204;-88
2023/07/12 04:20:48;;;;;;;7.03;6.10;;;;;;;;;;5152625;27;20580;-88
2023/07/12 04:23:15;;;;;;;7.00;5.60;;;;;;;;;;5152419;27;20232;-88
2023/07/12 04:25:43;;;;;;;6.85;6.25;;;;;;;;;;5152812;27;20264;-88
2023/07/12 04:28:12;;;;;;;14.23;6.15;;;;;;;;;;5153102;27;20246;-88
2023/07/12 04:30:40;;;;;;;7.57;6.28;;;;;;;;;;5153656;27;20238;-87
2023/07/12 04:33:06;;;;;;;7.00;6.32;;;;;;;;;;5153533;27;20199;-88
2023/07/12 04:35:38;;;;;;;6.57;5.97;;;;;;;;;;5152374;27;20195;-88
2023/07/12 04:38:05;;;;;;;7.60;6.68;;;;;;;;;;5153849;27;20576;-87
2023/07/12 04:40:32;;;;;;;8.75;6.75;;;;;;;;;;5153653;27;20565;-87
2023/07/12 04:43:00;;;;;;;7.97;6.18;;;;;;;;;;5152707;27;20270;-87
2023/07/12 04:45:29;;;;;;;8.60;6.13;;;;;;;;;;5156298;27;20210;-86
2023/07/12 04:47:56;;;;;;;8.02;6.68;;;;;;;;;;5156723;27;20199;-86
2023/07/12 04:50:23;;;;;;;10.90;7.18;;;;;;;;;;5157633;27;20227;-87
2023/07/12 04:52:49;;;;;;;7.10;6.50;;;;;;;;;;5157873;27;20201;-86
2023/07/12 04:55:21;;;;;;;7.63;6.93;;;;;;;;;;5157814;27;20750;-88
2023/07/12 04:57:48;;;;;;;6.45;5.90;;;;;;;;;;5157873;27;20204;-87
2023/07/12 05:00:15;;;;;;;7.55;6.28;;;;;;;;;;5157130;27;20340;-88
2023/07/12 05:02:43;;;;;;;7.55;6.65;;;;;;;;;;5157030;27;20196;-86
2023/07/12 05:05:11;;;;;;;7.22;6.60;;;;;;;;;;5156318;27;20203;-88
2023/07/12 05:07:38;;;;;;;7.55;6.85;;;;;;;;;;5156877;27;20286;-88
2023/07/12 05:10:07;;;;;;;10.55;7.60;;;;;;;;;;5156465;27;20410;-88
2023/07/12 05:12:34;;;;;;;7.40;6.70;;;;;;;;;;5156527;27;20239;-87
2023/07/12 05:15:00;;;;;;;7.25;6.30;;;;;;;;;;5156912;27;20221;-89
2023/07/12 05:17:28;;;;;;;7.93;6.55;;;;;;;;;;5156503;27;20665;-88
2023/07/12 05:19:56;;;;;;;7.20;6.60;;;;;;;;;;5156395;27;20306;-87
2023/07/12 05:22:23;;;;;;;7.25;6.55;;;;;;;;;;5156183;27;20199;-88
2023/07/12 05:24:50;;;;;;;6.95;6.22;;;;;;;;;;5156674;27;20198;-88
2023/07/12 05:27:17;;;;;;;7.60;7.00;;;;;;;;;;5155389;27;20227;-88
2023/07/12 05:29:43;;;;;;;6.68;6.07;;;;;;;;;;5155423;27;20260;-87
2023/07/12 05:32:10;;;;;;;6.70;6.10;;;;;;;;;;5155563;27;20235;-88
2023/07/12 05:34:42;;;;;;;6.13;5.72;;;;;;;;;;5158164;27;20192;-87
2023/07/12 05:37:12;;;;;;;6.30;5.82;;;;;;;;;;5160060;27;20744;-87
2023/07/12 05:39:39;;;;;;;8.15;7.45;;;;;;;;;;5158259;27;20251;-89
2023/07/12 05:42:07;;;;;;;7.47;6.25;;;;;;;;;;5161651;27;20214;-87
2023/07/12 05:44:35;;;;;;;8.75;6.07;;;;;;;;;;5161029;27;20203;-87
2023/07/12 05:47:15;;;;;;;8.00;7.00;;;;;;;;;;5158610;27;20270;-88
2023/07/12 05:49:43;;;;;;;7.43;6.72;;;;;;;;;;5160213;27;20195;-87
2023/07/12 05:52:16;;;;;;;8.75;6.45;;;;;;;;;;5160099;27;20238;-88
2023/07/12 05:54:46;;;;;;;7.47;6.78;;;;;;;;;;5158232;27;20290;-89
2023/07/12 05:57:12;;;;;;;7.43;6.78;;;;;;;;;;5163679;27;20188;-88
2023/07/12 05:59:40;;;;;;;6.80;6.30;;;;;;;;;;5160278;27;20196;-87
2023/07/12 06:02:08;;;;;;;7.22;6.53;;;;;;;;;;5157214;27;20644;-87
2023/07/12 06:04:36;;;;;;;6.78;6.28;;;;;;;;;;5158148;27;20222;-87
2023/07/12 06:07:06;;;;;;;8.23;6.80;;;;;;;;;;5161002;27;20549;-88
2023/07/12 06:09:35;;;;;;;6.72;6.10;;;;;;;;;;5155835;27;20200;-88
2023/07/12 06:12:02;;;;;;;7.32;6.55;;;;;;;;;;5154756;27;20235;-88
2023/07/12 06:14:30;;;;;;;6.60;6.00;;;;;;;;;;5158175;27;20231;-88
2023/07/12 06:16:58;;;;;;;6.05;5.65;;;;;;;;;;5159997;27;20299;-87
2023/07/12 06:19:26;;;;;;;9.95;6.43;;;;;;;;;;5165920;27;20248;-86
2023/07/12 06:21:53;;;;;;;6.72;6.22;;;;;;;;;;5171099;27;20636;-87
2023/07/12 06:24:20;;;;;;;6.95;6.18;;;;;;;;;;5165203;27;20191;-88
2023/07/12 06:26:49;;;;;;;6.40;5.78;;;;;;;;;;5164387;27;20734;-88
2023/07/12 06:29:16;;;;;;;6.90;6.35;;;;;;;;;;5154617;27;20196;-88
2023/07/12 06:31:43;;;;;;;7.50;6.90;;;;;;;;;;5154252;27;20285;-88
2023/07/12 06:34:11;;;;;;;7.43;6.40;;;;;;;;;;5153421;27;20207;-89
2023/07/12 06:36:38;;;;;;;6.55;6.07;;;;;;;;;;5154488;27;20274;-89
2023/07/12 06:39:06;;;;;;;7.32;6.72;;;;;;;;;;5155097;27;20579;-88
2023/07/12 06:41:33;;;;;;;7.60;7.00;;;;;;;;;;5158435;27;20612;-88
2023/07/12 06:44:02;;;;;;;5.97;5.60;;;;;;;;;;5159907;27;20195;-88
2023/07/12 06:46:28;;;;;;;9.70;6.43;;;;;;;;;;5168754;27;20191;-87
2023/07/12 06:48:57;;;;;;;6.80;6.30;;;;;;;;;;5176106;27;20210;-89
2023/07/12 06:51:24;;;;;;;7.28;6.65;;;;;;;;;;5161798;27;20268;-88
2023/07/12 06:53:51;;;;;;;7.22;6.15;;;;;;;;;;5156421;27;20196;-87
2023/07/12 06:56:18;;;;;;;6.05;5.65;;;;;;;;;;5153829;27;20686;-87
2023/07/12 06:58:46;;;;;;;8.40;6.07;;;;;;;;;;5153873;27;20199;-89
2023/07/12 07:01:16;;;;;;;6.45;5.93;;;;;;;;;;5154427;27;20552;-88
2023/07/12 07:03:44;;;;;;;6.35;5.85;;;;;;;;;;5154247;27;20279;-89
2023/07/12 07:06:11;;;;;;;7.20;6.10;;;;;;;;;;5154180;27;20203;-89
2023/07/12 07:08:37;;;;;;;6.32;5.72;;;;;;;;;;5154150;27;20200;-88
2023/07/12 07:11:04;;;;;;;6.10;5.55;;;;;;;;;;5153851;27;20230;-88
2023/07/12 07:13:33;;;;;;;5.75;5.22;;;;;;;;;;5154398;27;20192;-89
2023/07/12 07:15:59;;;;;;;6.57;5.97;;;;;;;;;;5153956;27;20199;-88
2023/07/12 07:18:28;;;;;;;6.60;5.90;;;;;;;;;;5153927;27;20210;-88
2023/07/12 07:20:55;;;;;;;6.55;6.03;;;;;;;;;;5154190;27;20195;-88
2023/07/12 07:23:22;;;;;;;7.78;6.20;;;;;;;;;;5153067;27;20191;-88
2023/07/12 07:25:50;;;;;;;5.88;5.47;;;;;;;;;;5152892;27;20195;-88
2023/07/12 07:28:16;;;;;;;6.63;6.13;;;;;;;;;;5153362;27;20694;-88
2023/07/12 07:30:44;;;;;;;6.68;6.28;;;;;;;;;;5153428;27;20668;-88
2023/07/12 07:33:11;;;;;;;6.43;5.93;;;;;;;;;;5153348;27;20230;-89
2023/07/12 07:35:39;;;;;;;6.75;5.70;;;;;;;;;;5152815;27;20259;-88
2023/07/12 07:38:06;;;;;;;10.13;6.18;;;;;;;;;;5152960;27;20247;-87
2023/07/12 07:40:33;;;;;;;8.05;6.43;;;;;;;;;;5152716;27;20187;-87
2023/07/12 07:43:00;;;;;;;6.22;5.43;;;;;;;;;;5152835;27;20594;-88
2023/07/12 07:45:27;;;;;;;6.97;6.22;;;;;;;;;;5152904;27;20195;-88
2023/07/12 07:47:57;;;;;;;6.85;6.03;;;;;;;;;;5158212;27;20283;-88
2023/07/12 07:50:24;;;;;;;6.57;6.18;;;;;;;;;;5157391;27;20215;-87
2023/07/12 07:52:53;;;;;;;7.05;6.40;;;;;;;;;;5157920;27;20294;-87
2023/07/12 07:55:21;;;;;;;7.43;6.70;;;;;;;;;;5158314;27;20211;-89
2023/07/12 07:57:48;;;;;;;6.47;5.88;;;;;;;;;;5155011;27;20679;-87
2023/07/12 08:00:15;;;;;;;7.00;6.05;;;;;;;;;;5152867;27;20199;-88
2023/07/12 08:02:43;;;;;;;6.97;6.20;;;;;;;;;;5152645;27;20202;-88
2023/07/12 08:05:10;;;;;;;5.95;5.43;;;;;;;;;;5152336;27;20206;-88
2023/07/12 08:07:41;;;;;;;7.03;6.38;;;;;;;;;;5152981;27;20226;-88
2023/07/12 08:10:11;;;;;;;8.32;6.35;;;;;;;;;;5152747;27;20192;-86
2023/07/12 08:12:38;;;;;;;5.97;5.47;;;;;;;;;;5151611;27;20235;-87
2023/07/12 08:15:06;;;;;;;6.43;5.82;;;;;;;;;;5152850;27;20312;-88
2023/07/12 08:17:34;;;;;;;6.35;5.85;;;;;;;;;;5152478;27;20273;-88
2023/07/12 08:20:01;;;;;;;6.15;5.65;;;;;;;;;;5152081;27;20204;-87
2023/07/12 08:22:28;;;;;;;6.85;6.25;;;;;;;;;;5152666;27;20192;-88
2023/07/12 08:24:55;;;;;;;6.80;6.10;;;;;;;;;;5152390;27;20278;-87
2023/07/12 08:27:23;;;;;;;8.57;6.25;;;;;;;;;;5152637;27;20227;-89
2023/07/12 08:29:58;;;;;;;7.35;6.68;;;;;;;;;;5152343;27;20215;-87
2023/07/12 08:32:27;;;;;;;6.90;6.40;;;;;;;;;;5151690;27;20528;-88
2023/07/12 08:34:54;;;;;;;7.88;7.07;;;;;;;;;;5152167;27;20691;-87
2023/07/12 08:37:22;;;;;;;7.03;6.43;;;;;;;;;;5152595;27;20693;-88
2023/07/12 08:39:48;;;;;;;8.93;6.50;;;;;;;;;;5151530;27;20217;-88
2023/07/12 08:42:19;;;;;;;10.77;6.68;;;;;;;;;;5151942;27;20624;-88
2023/07/12 08:44:51;;;;;;;8.50;6.93;;;;;;;;;;5151913;27;20271;-88
2023/07/12 08:47:24;;;;;;;6.70;6.20;;;;;;;;;;5153869;27;20259;-88
2023/07/12 08:49:50;;;;;;;6.55;5.93;;;;;;;;;;5152613;27;20183;-88
2023/07/12 08:52:23;;;;;;;7.03;6.20;;;;;;;;;;5152349;27;20279;-87
2023/07/12 08:54:50;;;;;;;7.45;6.65;;;;;;;;;;5152546;27;20691;-88
2023/07/12 08:57:18;;;;;;;6.43;5.88;;;;;;;;;;5153180;27;20195;-88
2023/07/12 08:59:47;;;;;;;7.13;6.38;;;;;;;;;;5152656;27;20244;-87
2023/07/12 09:02:21;;;;;;;7.32;6.63;;;;;;;;;;5153184;27;20223;-88
2023/07/12 09:04:48;;;;;;;6.75;6.22;;;;;;;;;;5153259;27;20207;-89
2023/07/12 09:07:21;;;;;;;8.10;6.45;;;;;;;;;;5152844;27;20293;-87
2023/07/12 09:09:49;;;;;;;6.20;5.80;;;;;;;;;;5152587;27;20199;-88
2023/07/12 09:12:24;;;;;;;6.90;6.22;;;;;;;;;;5152169;27;20231;-86
2023/07/12 09:14:53;;;;;;;6.15;5.65;;;;;;;;;;5153999;27;20199;-88
2023/07/12 09:17:24;;;;;;;6.90;6.30;;;;;;;;;;5153674;27;20234;-88
2023/07/12 09:19:51;;;;;;;6.70;6.25;;;;;;;;;;5154182;27;20214;-86
2023/07/12 09:22:19;;;;;;;6.95;6.35;;;;;;;;;;5153385;27;20259;-88
2023/07/12 09:24:47;;;;;;;6.68;6.10;;;;;;;;;;5153678;27;20284;-88
2023/07/12 09:27:15;;;;;;;8.75;6.20;;;;;;;;;;5154166;27;20239;-89
2023/07/12 09:29:43;;;;;;;5.82;5.38;;;;;;;;;;5153353;27;20195;-87
2023/07/12 09:32:16;;;;;;;8.55;5.38;;;;;;;;;;5155907;27;20227;-89
2023/07/12 09:34:47;;;;;;;7.20;5.93;;;;;;;;;;5155757;27;20218;-87
2023/07/12 09:37:15;;;;;;;5.30;5.00;;;;;;;;;;5155421;27;20180;-87
2023/07/12 09:39:42;;;;;;;4.78;4.43;;;;;;;;;;5155335;27;20699;-88
2023/07/12 09:42:11;;;;;;;4.90;4.57;;;;;;;;;;5155116;27;20198;-86
2023/07/12 09:44:38;;;;;;;5.88;4.70;;;;;;;;;;5155841;27;20191;-88
2023/07/12 09:47:10;;;;;;;4.07;3.88;;;;;;;;;;5155287;27;20219;-87
2023/07/12 09:49:39;;;;;;;4.75;4.38;;;;;;;;;;5156080;27;20199;-87
2023/07/12 09:52:13;;;;;;;7.45;5.95;;;;;;;;;;5155611;27;20234;-87
2023/07/12 09:54:44;;;;;;;6.30;4.20;;;;;;;;;;5155916;27;20220;-87
2023/07/12 09:57:15;;;;;;;4.22;4.03;;;;;;;;;;5156587;27;20199;-87
2023/07/12 09:59:49;;;;;;;5.10;4.40;;;;;;;;;;5154856;27;20191;-88
2023/07/12 10:02:28;;;;;;;6.07;4.55;;;;;;;;;;5154902;27;20359;-88
2023/07/12 10:04:58;;;;;;;4.05;3.75;;;;;;;;;;5156302;27;20217;-88
2023/07/12 10:07:36;;;;;;;3.88;3.65;;;;;;;;;;5155877;27;20192;-87
2023/07/12 10:10:04;;;;;;;4.07;3.88;;;;;;;;;;5155049;27;20649;-87
2023/07/12 10:12:34;;;;;;;4.30;4.10;;;;;;;;;;5161386;27;20310;-87
2023/07/12 10:15:02;;;;;;;4.18;3.88;;;;;;;;;;5160902;27;20549;-88
2023/07/12 10:17:34;;;;;;;4.28;3.90;;;;;;;;;;5163372;27;20226;-88
2023/07/12 10:20:02;;;;;;;4.32;4.13;;;;;;;;;;5166696;27;20272;-87
2023/07/12 10:22:38;;;;;;;4.65;4.25;;;;;;;;;;5168806;27;20215;-87
2023/07/12 10:25:10;;;;;;;5.40;4.40;;;;;;;;;;5176273;27;20183;-86
2023/07/12 10:27:39;;;;;;;3.80;3.60;;;;;;;;;;5170838;27;20235;-87
2023/07/12 10:30:11;;;;;;;8.13;4.40;;;;;;;;;;5164549;27;20408;-85
2023/07/12 10:32:44;;;;;;;4.88;4.45;;;;;;;;;;5160184;27;20293;-88
2023/07/12 10:35:17;;;;;;;4.57;4.28;;;;;;;;;;5158134;27;20255;-86
2023/07/12 10:37:49;;;;;;;4.25;3.95;;;;;;;;;;5158833;27;20644;-86
2023/07/12 10:40:19;;;;;;;5.00;4.60;;;;;;;;;;5160827;27;20226;-86
2023/07/12 10:42:49;;;;;;;4.22;3.90;;;;;;;;;;5159145;27;20213;-87
2023/07/12 10:45:18;;;;;;;4.70;4.28;;;;;;;;;;5158478;27;20222;-88
2023/07/12 10:47:47;;;;;;;4.55;4.20;;;;;;;;;;5158331;27;20207;-88
2023/07/12 10:50:22;;;;;;;5.22;3.83;;;;;;;;;;5159509;27;20326;-88
2023/07/12 10:53:02;;;;;;;4.80;4.40;;;;;;;;;;5158825;27;20231;-89
2023/07/12 10:55:41;;;;;;;5.78;4.10;;;;;;;;;;5163141;27;20203;-88
2023/07/12 10:58:30;;;;;;;4.43;4.05;;;;;;;;;;5162026;27;20191;-87
2023/07/12 11:00:58;;;;;;;4.00;3.80;;;;;;;;;;5152880;27;20204;-87
2023/07/12 11:03:39;;;;;;;4.60;4.30;;;;;;;;;;5159084;27;20200;-89
2023/07/12 11:06:07;;;;;;;5.70;4.07;;;;;;;;;;5160004;27;20184;-86
2023/07/12 11:08:41;;;;;;;7.65;4.20;;;;;;;;;;5158733;27;20218;-88
2023/07/12 11:11:27;;;;;;;4.75;4.35;;;;;;;;;;5158546;27;20232;-88
2023/07/12 11:13:56;;;;;;;4.72;4.32;;;;;;;;;;5158198;27;20239;-88
2023/07/12 11:16:26;;;;;;;5.70;4.55;;;;;;;;;;5157492;27;20223;-87
2023/07/12 11:18:54;;;;;;;4.60;4.30;;;;;;;;;;5158361;27;20528;-88
2023/07/12 11:21:29;;;;;;;5.97;5.38;;;;;;;;;;5158321;27;20282;-89
2023/07/12 11:23:57;;;;;;;5.30;4.80;;;;;;;;;;5158397;27;20199;-90
2023/07/12 11:26:27;;;;;;;4.70;4.32;;;;;;;;;;5157546;27;20680;-89
2023/07/12 11:28:55;;;;;;;4.85;4.45;;;;;;;;;;5158560;27;20206;-89
2023/07/12 11:31:31;;;;;;;4.70;4.15;;;;;;;;;;5158443;27;20223;-87
2023/07/12 11:34:03;;;;;;;4.15;3.95;;;;;;;;;;5155927;27;20226;-89
2023/07/12 11:36:34;;;;;;;4.75;4.30;;;;;;;;;;5155097;27;20196;-88
2023/07/12 11:39:10;;;;;;;4.28;3.85;;;;;;;;;;5157672;27;20550;-88
2023/07/12 11:41:43;;;;;;;6.18;4.15;;;;;;;;;;5157736;27;20197;-87
2023/07/12 11:44:14;;;;;;;4.07;3.78;;;;;;;;;;5157626;27;20199;-87
2023/07/12 11:46:43;;;;;;;5.63;5.13;;;;;;;;;;5154610;27;20199;-88
2023/07/12 11:49:14;;;;;;;5.05;4.65;;;;;;;;;;5153510;27;20199;-88
2023/07/12 11:51:42;;;;;;;4.43;4.07;;;;;;;;;;5155255;27;20211;-88
2023/07/12 11:54:20;;;;;;;5.03;4.63;;;;;;;;;;5152435;27;20223;-87
2023/07/12 11:56:53;;;;;;;5.07;4.57;;;;;;;;;;5155251;27;20210;-88
2023/07/12 11:59:22;;;;;;;5.00;4.63;;;;;;;;;;5154543;27;20195;-87
2023/07/12 12:01:49;;;;;;;4.88;4.40;;;;;;;;;;5154160;27;20648;-87
2023/07/12 12:04:21;;;;;;;4.65;4.45;;;;;;;;;;5156118;27;20195;-89
2023/07/12 12:06:48;;;;;;;4.78;4.47;;;;;;;;;;5170080;27;20221;-87
2023/07/12 12:09:16;;;;;;;4.90;4.55;;;;;;;;;;5177082;27;20282;-86
2023/07/12 12:11:47;;;;;;;4.57;4.28;;;;;;;;;;5176845;27;20551;-88
2023/07/12 12:14:19;;;;;;;5.63;5.00;;;;;;;;;;5173124;27;20223;-88
2023/07/12 12:16:52;;;;;;;5.40;4.80;;;;;;;;;;5168619;27;20419;-86
2023/07/12 12:19:19;;;;;;;4.97;4.57;;;;;;;;;;5167327;27;20565;-87
2023/07/12 12:21:49;;;;;;;5.28;4.50;;;;;;;;;;5161561;27;20200;-87
2023/07/12 12:24:17;;;;;;;5.25;4.85;;;;;;;;;;5152372;27;20283;-88
2023/07/12 12:26:49;;;;;;;4.78;4.47;;;;;;;;;;5151949;27;20318;-87
2023/07/12 12:29:17;;;;;;;4.45;4.13;;;;;;;;;;5152607;27;20564;-88
2023/07/12 12:31:51;;;;;;;5.10;4.40;;;;;;;;;;5153182;27;20216;-87
2023/07/12 12:34:19;;;;;;;4.30;4.00;;;;;;;;;;5152678;27;20826;-87
2023/07/12 12:36:56;;;;;;;4.40;4.13;;;;;;;;;;5152741;27;20204;-87
2023/07/12 12:39:24;;;;;;;5.00;4.60;;;;;;;;;;5152076;27;20179;-87
2023/07/12 12:41:54;;;;;;;5.60;4.15;;;;;;;;;;5152103;27;20416;-87
2023/07/12 12:44:22;;;;;;;4.85;4.45;;;;;;;;;;5152138;27;20206;-88
2023/07/12 12:46:50;;;;;;;4.97;4.28;;;;;;;;;;5151655;27;20207;-87
2023/07/12 12:49:21;;;;;;;4.60;4.40;;;;;;;;;;5152506;27;20206;-88
2023/07/12 12:51:49;;;;;;;7.40;4.68;;;;;;;;;;5154434;27;20221;-87
2023/07/12 12:54:16;;;;;;;5.30;4.82;;;;;;;;;;5153353;27;20227;-88
2023/07/12 12:56:43;;;;;;;5.50;4.97;;;;;;;;;;5154359;27;20350;-88
2023/07/12 12:59:12;;;;;;;5.28;4.70;;;;;;;;;;5153099;27;20199;-88
2023/07/12 13:01:39;;;;;;;8.73;4.63;;;;;;;;;;5153039;27;20241;-88
2023/07/12 13:04:07;;;;;;;10.65;4.70;;;;;;;;;;5157036;27;20236;-86
2023/07/12 13:06:34;;;;;;;5.10;4.70;;;;;;;;;;5165061;27;20682;-89
2023/07/12 13:09:01;;;;;;;6.70;4.65;;;;;;;;;;5156416;27;20195;-88
2023/07/12 13:11:28;;;;;;;4.72;4.43;;;;;;;;;;5156395;27;20221;-88
2023/07/12 13:13:55;;;;;;;4.53;4.32;;;;;;;;;;5156204;27;20615;-87
2023/07/12 13:16:23;;;;;;;4.72;4.43;;;;;;;;;;5156239;27;20195;-88
2023/07/12 13:18:50;;;;;;;4.28;4.00;;;;;;;;;;5158105;27;20206;-87
2023/07/12 13:21:18;;;;;;;5.22;4.82;;;;;;;;;;5158364;27;20328;-87
2023/07/12 13:23:46;;;;;;;4.43;4.22;;;;;;;;;;5157621;27;20199;-87
2023/07/12 13:26:14;;;;;;;4.60;4.30;;;;;;;;;;5160617;27;20228;-89
2023/07/12 13:28:42;;;;;;;3.70;3.50;;;;;;;;;;5156933;27;20749;-87
2023/07/12 13:31:10;;;;;;;5.25;4.20;;;;;;;;;;5156503;27;20192;-87
2023/07/12 13:33:39;;;;;;;3.90;3.70;;;;;;;;;;5155201;27;20231;-88
2023/07/12 13:36:06;;;;;;;4.50;4.20;;;;;;;;;;5155172;27;20701;-88
2023/07/12 13:38:34;;;;;;;4.72;4.40;;;;;;;;;;5155824;27;20200;-90
2023/07/12 13:41:02;;;;;;;4.55;3.90;;;;;;;;;;5156543;27;20195;-88
2023/07/12 13:43:29;;;;;;;4.45;4.15;;;;;;;;;;5156821;27;20233;-88
2023/07/12 13:45:57;;;;;;;4.07;3.78;;;;;;;;;;5137683;27;20657;-89
2023/07/12 13:48:27;;;;;;;3.72;3.53;;;;;;;;;;5156481;27;20552;-86
2023/07/12 13:50:56;;;;;;;3.88;3.20;;;;;;;;;;5159598;27;20364;-88
2023/07/12 13:53:23;;;;;;;3.70;3.50;;;;;;;;;;5160741;27;20219;-88
2023/07/12 13:55:50;;;;;;;3.72;3.47;;;;;;;;;;5171066;27;20187;-87
2023/07/12 13:58:17;;;;;;;3.60;3.50;;;;;;;;;;5177681;27;20210;-87
2023/07/12 14:00:45;;;;;;;3.70;3.15;;;;;;;;;;5158393;27;20625;-87
2023/07/12 14:03:12;;;;;;;3.25;3.05;;;;;;;;;;5156363;27;20607;-87
2023/07/12 14:05:39;;;;;;;2.83;2.72;;;;;;;;;;5160053;27;20247;-87
2023/07/12 14:08:12;;;;;;;4.65;3.47;;;;;;;;;;5158040;27;20649;-86
2023/07/12 14:10:39;;;;;;;4.28;3.25;;;;;;;;;;5158756;27;20191;-87
2023/07/12 14:13:11;;;;;;;2.78;2.63;;;;;;;;;;5160084;27;20230;-88
2023/07/12 14:15:38;;;;;;;3.42;3.13;;;;;;;;;;5157506;27;20358;-89
2023/07/12 14:18:06;;;;;;;2.97;2.78;;;;;;;;;;5153532;27;20211;-88
2023/07/12 14:20:33;;;;;;;3.45;3.22;;;;;;;;;;5154976;27;20255;-86
2023/07/12 14:23:00;;;;;;;2.70;2.60;;;;;;;;;;5155845;27;20555;-87
2023/07/12 14:25:29;;;;;;;3.95;3.72;;;;;;;;;;5154678;27;20664;-87
2023/07/12 14:28:00;;;;;;;3.40;3.10;;;;;;;;;;5155259;27;20346;-87
2023/07/12 14:30:28;;;;;;;2.53;2.42;;;;;;;;;;5159432;27;20633;-87
2023/07/12 14:32:54;;;;;;;3.05;2.70;;;;;;;;;;5159123;27;20287;-88
2023/07/12 14:35:26;;;;;;;2.53;2.42;;;;;;;;;;5161867;27;20196;-88
2023/07/12 14:37:54;;;;;;;2.88;2.67;;;;;;;;;;5162772;27;20249;-89
2023/07/12 14:40:22;;;;;;;3.20;3.00;;;;;;;;;;5162586;27;20248;-89
2023/07/12 14:42:50;;;;;;;2.83;2.63;;;;;;;;;;5161848;27;20188;-87
2023/07/12 14:45:21;;;;;;;3.08;2.70;;;;;;;;;;5162268;27;20280;-89
2023/07/12 14:47:48;;;;;;;3.22;2.80;;;;;;;;;;5163489;27;20226;-89
2023/07/12 14:50:16;;;;;;;3.65;3.30;;;;;;;;;;5156045;27;20556;-89
2023/07/12 14:52:43;;;;;;;3.40;2.55;;;;;;;;;;5156361;27;20696;-88